sensor_id;sensor_type;location;lat;lon;timestamp;pressure;altitude;pressure_sealevel;temperature;humidity
45369;BME280;51342;55.250;37.668;2024-02-16T00:01:09;101284.97;;;-9.93;74.31
45369;BME280;51342;55.250;37.668;2024-02-16T00:03:43;101286.63;;;-9.88;74.30
45369;BME280;51342;55.250;37.668;2024-02-16T00:06:15;101284.13;;;-9.88;74.20
45369;BME280;51342;55.250;37.668;2024-02-16T00:08:46;101288.47;;;-9.87;74.22
45369;BME280;51342;55.250;37.668;2024-02-16T00:11:18;101288.47;;;-9.87;74.19
45369;BME280;51342;55.250;37.668;2024-02-16T00:13:49;101284.81;;;-9.89;74.38
45369;BME280;51342;55.250;37.668;2024-02-16T00:16:21;101282.31;;;-9.89;74.40
45369;BME280;51342;55.250;37.668;2024-02-16T00:18:52;101278.88;;;-9.90;74.30
45369;BME280;51342;55.250;37.668;2024-02-16T00:21:23;101268.88;;;-9.90;74.48
45369;BME280;51342;55.250;37.668;2024-02-16T00:23:55;101270.94;;;-9.87;74.46
45369;BME280;51342;55.250;37.668;2024-02-16T00:26:27;101265.75;;;-9.83;74.33
45369;BME280;51342;55.250;37.668;2024-02-16T00:28:58;101260.06;;;-9.82;74.29
45369;BME280;51342;55.250;37.668;2024-02-16T00:31:30;101264.44;;;-9.81;74.37
45369;BME280;51342;55.250;37.668;2024-02-16T00:34:02;101256.94;;;-9.81;74.32
45369;BME280;51342;55.250;37.668;2024-02-16T00:36:33;101256.41;;;-9.84;74.44
45369;BME280;51342;55.250;37.668;2024-02-16T00:39:05;101258.47;;;-9.81;74.43
45369;BME280;51342;55.250;37.668;2024-02-16T00:41:36;101256.94;;;-9.81;74.45
45369;BME280;51342;55.250;37.668;2024-02-16T00:44:08;101265.34;;;-9.80;74.47
45369;BME280;51342;55.250;37.668;2024-02-16T00:46:39;101259.44;;;-9.81;74.50
45369;BME280;51342;55.250;37.668;2024-02-16T00:49:12;101259.44;;;-9.81;74.45
45369;BME280;51342;55.250;37.668;2024-02-16T00:51:43;101259.66;;;-9.79;74.44
45369;BME280;51342;55.250;37.668;2024-02-16T00:54:15;101248.06;;;-9.79;74.53
45369;BME280;51342;55.250;37.668;2024-02-16T00:56:46;101242.81;;;-9.80;74.62
45369;BME280;51342;55.250;37.668;2024-02-16T00:59:18;101233.38;;;-9.87;74.54
45369;BME280;51342;55.250;37.668;2024-02-16T01:01:50;101238.03;;;-9.79;74.49
45369;BME280;51342;55.250;37.668;2024-02-16T01:04:21;101233.03;;;-9.79;74.60
45369;BME280;51342;55.250;37.668;2024-02-16T01:06:54;101222.03;;;-9.85;74.41
45369;BME280;51342;55.250;37.668;2024-02-16T01:09:26;101233.72;;;-9.80;74.59
45369;BME280;51342;55.250;37.668;2024-02-16T01:11:57;101233.50;;;-9.76;74.67
45369;BME280;51342;55.250;37.668;2024-02-16T01:14:29;101231.28;;;-9.74;74.59
45369;BME280;51342;55.250;37.668;2024-02-16T01:17:01;101231.94;;;-9.75;74.54
45369;BME280;51342;55.250;37.668;2024-02-16T01:19:32;101231.28;;;-9.74;74.66
45369;BME280;51342;55.250;37.668;2024-02-16T01:22:04;101222.56;;;-9.76;74.64
45369;BME280;51342;55.250;37.668;2024-02-16T01:24:36;101220.75;;;-9.77;74.56
45369;BME280;51342;55.250;37.668;2024-02-16T01:27:07;101213.69;;;-9.80;74.67
45369;BME280;51342;55.250;37.668;2024-02-16T01:29:38;101211.41;;;-9.78;74.74
45369;BME280;51342;55.250;37.668;2024-02-16T01:32:10;101211.66;;;-9.77;74.73
45369;BME280;51342;55.250;37.668;2024-02-16T01:34:41;101225.34;;;-9.75;74.78
45369;BME280;51342;55.250;37.668;2024-02-16T01:37:15;101216.66;;;-9.77;74.62
45369;BME280;51342;55.250;37.668;2024-02-16T01:39:46;101216.47;;;-9.73;74.75
45369;BME280;51342;55.250;37.668;2024-02-16T01:42:18;101223.56;;;-9.70;74.60
45369;BME280;51342;55.250;37.668;2024-02-16T01:44:49;101213.75;;;-9.74;74.48
45369;BME280;51342;55.250;37.668;2024-02-16T01:47:21;101223.56;;;-9.70;74.65
45369;BME280;51342;55.250;37.668;2024-02-16T01:49:52;101224.50;;;-9.70;74.57
45369;BME280;51342;55.250;37.668;2024-02-16T01:52:24;101224.66;;;-9.74;74.61
45369;BME280;51342;55.250;37.668;2024-02-16T01:54:56;101223.75;;;-9.74;74.77
45369;BME280;51342;55.250;37.668;2024-02-16T01:57:28;101226.19;;;-9.80;74.70
45369;BME280;51342;55.250;37.668;2024-02-16T01:59:59;101227.59;;;-9.76;74.64
45369;BME280;51342;55.250;37.668;2024-02-16T02:02:32;101229.69;;;-9.74;74.79
45369;BME280;51342;55.250;37.668;2024-02-16T02:05:03;101239.03;;;-9.73;74.64
45369;BME280;51342;55.250;37.668;2024-02-16T02:07:35;101232.41;;;-9.72;74.72
45369;BME280;51342;55.250;37.668;2024-02-16T02:10:07;101222.84;;;-9.75;74.82
45369;BME280;51342;55.250;37.668;2024-02-16T02:12:39;101237.66;;;-9.71;74.72
45369;BME280;51342;55.250;37.668;2024-02-16T02:15:11;101240.16;;;-9.71;74.74
45369;BME280;51342;55.250;37.668;2024-02-16T02:17:43;101232.19;;;-9.74;74.66
45369;BME280;51342;55.250;37.668;2024-02-16T02:20:14;101228.25;;;-9.77;74.60
45369;BME280;51342;55.250;37.668;2024-02-16T02:22:46;101231.06;;;-9.70;74.65
45369;BME280;51342;55.250;37.668;2024-02-16T02:25:17;101235.44;;;-9.69;74.61
45369;BME280;51342;55.250;37.668;2024-02-16T02:27:48;101230.16;;;-9.71;74.61
45369;BME280;51342;55.250;37.668;2024-02-16T02:30:20;101235.22;;;-9.65;74.63
45369;BME280;51342;55.250;37.668;2024-02-16T02:32:52;101244.31;;;-9.66;74.60
45369;BME280;51342;55.250;37.668;2024-02-16T02:35:23;101234.31;;;-9.66;74.38
45369;BME280;51342;55.250;37.668;2024-02-16T02:38:14;101248.19;;;-9.68;74.53
45369;BME280;51342;55.250;37.668;2024-02-16T02:40:46;101247.34;;;-9.63;74.68
45369;BME280;51342;55.250;37.668;2024-02-16T02:43:18;101241.66;;;-9.62;74.82
45369;BME280;51342;55.250;37.668;2024-02-16T02:45:50;101252.81;;;-9.59;74.72
45369;BME280;51342;55.250;37.668;2024-02-16T02:48:21;101253.25;;;-9.62;74.76
45369;BME280;51342;55.250;37.668;2024-02-16T02:50:53;101241.41;;;-9.63;74.66
45369;BME280;51342;55.250;37.668;2024-02-16T02:53:24;101247.56;;;-9.61;74.77
45369;BME280;51342;55.250;37.668;2024-02-16T02:55:56;101252.41;;;-9.57;74.64
45369;BME280;51342;55.250;37.668;2024-02-16T02:58:28;101247.16;;;-9.58;74.60
45369;BME280;51342;55.250;37.668;2024-02-16T03:00:59;101254.16;;;-9.62;74.45
45369;BME280;51342;55.250;37.668;2024-02-16T03:03:31;101247.09;;;-9.64;74.53
45369;BME280;51342;55.250;37.668;2024-02-16T03:06:02;101241.34;;;-9.69;74.43
45369;BME280;51342;55.250;37.668;2024-02-16T03:08:37;101246.34;;;-9.69;74.44
45369;BME280;51342;55.250;37.668;2024-02-16T03:11:09;101248.66;;;-9.65;74.53
45369;BME280;51342;55.250;37.668;2024-02-16T03:13:40;101249.84;;;-9.63;74.58
45369;BME280;51342;55.250;37.668;2024-02-16T03:16:12;101242.31;;;-9.63;74.62
45369;BME280;51342;55.250;37.668;2024-02-16T03:18:43;101247.34;;;-9.63;74.39
45369;BME280;51342;55.250;37.668;2024-02-16T03:21:15;101243.91;;;-9.63;74.50
45369;BME280;51342;55.250;37.668;2024-02-16T03:23:49;101245.75;;;-9.62;74.49
45369;BME280;51342;55.250;37.668;2024-02-16T03:26:21;101238.91;;;-9.63;74.79
45369;BME280;51342;55.250;37.668;2024-02-16T03:28:52;101232.06;;;-9.64;74.54
45369;BME280;51342;55.250;37.668;2024-02-16T03:31:24;101237.78;;;-9.59;74.47
45369;BME280;51342;55.250;37.668;2024-02-16T03:33:55;101235.03;;;-9.61;74.41
45369;BME280;51342;55.250;37.668;2024-02-16T03:36:28;101239.13;;;-9.62;74.70
45369;BME280;51342;55.250;37.668;2024-02-16T03:39:00;101235.28;;;-9.59;74.47
45369;BME280;51342;55.250;37.668;2024-02-16T03:41:32;101232.06;;;-9.64;74.42
45369;BME280;51342;55.250;37.668;2024-02-16T03:44:03;101242.31;;;-9.63;74.40
45369;BME280;51342;55.250;37.668;2024-02-16T03:46:35;101243.22;;;-9.62;74.55
45369;BME280;51342;55.250;37.668;2024-02-16T03:49:08;101242.78;;;-9.59;74.57
45369;BME280;51342;55.250;37.668;2024-02-16T03:51:39;101234.38;;;-9.60;74.47
45369;BME280;51342;55.250;37.668;2024-02-16T03:54:11;101245.81;;;-9.56;74.41
45369;BME280;51342;55.250;37.668;2024-02-16T03:56:42;101243.97;;;-9.57;74.35
45369;BME280;51342;55.250;37.668;2024-02-16T03:59:16;101245.63;;;-9.52;74.33
45369;BME280;51342;55.250;37.668;2024-02-16T04:01:47;101249.97;;;-9.51;74.26
45369;BME280;51342;55.250;37.668;2024-02-16T04:04:19;101250.13;;;-9.55;74.20
45369;BME280;51342;55.250;37.668;2024-02-16T04:06:50;101254.22;;;-9.56;74.27
45369;BME280;51342;55.250;37.668;2024-02-16T04:09:22;101259.00;;;-9.57;74.28
45369;BME280;51342;55.250;37.668;2024-02-16T04:11:53;101259.00;;;-9.57;74.37
45369;BME280;51342;55.250;37.668;2024-02-16T04:14:24;101262.84;;;-9.59;74.32
45369;BME280;51342;55.250;37.668;2024-02-16T04:16:56;101264.00;;;-9.57;74.33
45369;BME280;51342;55.250;37.668;2024-02-16T04:19:31;101257.59;;;-9.61;74.33
45369;BME280;51342;55.250;37.668;2024-02-16T04:22:02;101265.84;;;-9.56;74.50
45369;BME280;51342;55.250;37.668;2024-02-16T04:24:34;101267.91;;;-9.54;74.39
45369;BME280;51342;55.250;37.668;2024-02-16T04:27:06;101274.50;;;-9.54;74.33
45369;BME280;51342;55.250;37.668;2024-02-16T04:29:38;101272.69;;;-9.55;74.30
45369;BME280;51342;55.250;37.668;2024-02-16T04:32:09;101275.19;;;-9.55;74.36
45369;BME280;51342;55.250;37.668;2024-02-16T04:34:41;101263.50;;;-9.61;74.32
45369;BME280;51342;55.250;37.668;2024-02-16T04:37:15;101262.19;;;-9.58;74.22
45369;BME280;51342;55.250;37.668;2024-02-16T04:39:48;101273.41;;;-9.51;74.43
45369;BME280;51342;55.250;37.668;2024-02-16T04:42:19;101263.41;;;-9.51;74.27
45369;BME280;51342;55.250;37.668;2024-02-16T04:44:51;101258.63;;;-9.49;74.31
45369;BME280;51342;55.250;37.668;2024-02-16T04:47:22;101258.84;;;-9.48;74.30
45369;BME280;51342;55.250;37.668;2024-02-16T04:49:56;101246.31;;;-9.48;74.38
45369;BME280;51342;55.250;37.668;2024-02-16T04:52:27;101248.84;;;-9.48;74.37
45369;BME280;51342;55.250;37.668;2024-02-16T04:54:59;101247.91;;;-9.48;74.29
45369;BME280;51342;55.250;37.668;2024-02-16T04:57:35;101247.69;;;-9.50;74.22
45369;BME280;51342;55.250;37.668;2024-02-16T05:00:07;101239.25;;;-9.50;74.19
45369;BME280;51342;55.250;37.668;2024-02-16T05:02:40;101243.34;;;-9.51;74.26
45369;BME280;51342;55.250;37.668;2024-02-16T05:05:12;101252.47;;;-9.51;74.33
45369;BME280;51342;55.250;37.668;2024-02-16T05:07:48;101248.13;;;-9.52;74.23
45369;BME280;51342;55.250;37.668;2024-02-16T05:10:20;101243.75;;;-9.53;74.30
45369;BME280;51342;55.250;37.668;2024-02-16T05:12:52;101238.13;;;-9.52;74.17
45369;BME280;51342;55.250;37.668;2024-02-16T05:15:24;101238.34;;;-9.51;74.28
45369;BME280;51342;55.250;37.668;2024-02-16T05:17:55;101246.78;;;-9.50;74.24
45369;BME280;51342;55.250;37.668;2024-02-16T05:20:26;101244.50;;;-9.49;74.26
45369;BME280;51342;55.250;37.668;2024-02-16T05:22:58;101241.09;;;-9.49;74.31
45369;BME280;51342;55.250;37.668;2024-02-16T05:25:29;101240.16;;;-9.50;74.27
45369;BME280;51342;55.250;37.668;2024-02-16T05:28:01;101245.91;;;-9.45;74.41
45369;BME280;51342;55.250;37.668;2024-02-16T05:30:32;101239.72;;;-9.47;74.34
45369;BME280;51342;55.250;37.668;2024-02-16T05:33:04;101245.25;;;-9.44;74.33
45369;BME280;51342;55.250;37.668;2024-02-16T05:35:35;101239.06;;;-9.46;74.28
45369;BME280;51342;55.250;37.668;2024-02-16T05:38:10;101229.69;;;-9.47;74.35
45369;BME280;51342;55.250;37.668;2024-02-16T05:40:52;101231.34;;;-9.42;74.24
45369;BME280;51342;55.250;37.668;2024-02-16T05:43:27;101238.88;;;-9.42;74.37
45369;BME280;51342;55.250;37.668;2024-02-16T05:45:59;101233.84;;;-9.42;74.35
45369;BME280;51342;55.250;37.668;2024-02-16T05:48:30;101234.34;;;-9.39;74.40
45369;BME280;51342;55.250;37.668;2024-02-16T05:51:02;101241.69;;;-9.35;74.49
45369;BME280;51342;55.250;37.668;2024-02-16T05:53:34;101251.50;;;-9.31;74.39
45369;BME280;51342;55.250;37.668;2024-02-16T05:56:06;101267.03;;;-9.28;74.31
45369;BME280;51342;55.250;37.668;2024-02-16T05:58:38;101265.94;;;-9.24;74.40
45369;BME280;51342;55.250;37.668;2024-02-16T06:01:09;101266.41;;;-9.21;74.44
45369;BME280;51342;55.250;37.668;2024-02-16T06:03:43;101265.31;;;-9.18;74.47
45369;BME280;51342;55.250;37.668;2024-02-16T06:06:15;101264.19;;;-9.14;74.45
45369;BME280;51342;55.250;37.668;2024-02-16T06:08:46;101268.28;;;-9.15;74.46
45369;BME280;51342;55.250;37.668;2024-02-16T06:11:18;101268.97;;;-9.16;74.44
45369;BME280;51342;55.250;37.668;2024-02-16T06:13:49;101264.47;;;-9.13;74.45
45369;BME280;51342;55.250;37.668;2024-02-16T06:16:21;101273.84;;;-9.06;74.53
45369;BME280;51342;55.250;37.668;2024-02-16T06:18:53;101271.13;;;-9.02;74.38
45369;BME280;51342;55.250;37.668;2024-02-16T06:21:25;101259.53;;;-9.01;74.54
45369;BME280;51342;55.250;37.668;2024-02-16T06:23:56;101262.06;;;-9.01;74.40
45369;BME280;51342;55.250;37.668;2024-02-16T06:26:27;101263.19;;;-8.99;74.35
45369;BME280;51342;55.250;37.668;2024-02-16T06:28:59;101265.53;;;-8.95;74.48
45369;BME280;51342;55.250;37.668;2024-02-16T06:31:30;101270.31;;;-8.91;74.35
45369;BME280;51342;55.250;37.668;2024-02-16T06:34:02;101262.84;;;-8.86;74.36
45369;BME280;51342;55.250;37.668;2024-02-16T06:36:34;101267.22;;;-8.85;74.24
45369;BME280;51342;55.250;37.668;2024-02-16T06:39:06;101271.59;;;-8.78;74.30
45369;BME280;51342;55.250;37.668;2024-02-16T06:41:37;101268.84;;;-8.74;74.22
45369;BME280;51342;55.250;37.668;2024-02-16T06:44:09;101273.47;;;-8.71;74.18
45369;BME280;51342;55.250;37.668;2024-02-16T06:46:43;101262.50;;;-8.72;74.15
45369;BME280;51342;55.250;37.668;2024-02-16T06:49:15;101272.31;;;-8.68;74.17
45369;BME280;51342;55.250;37.668;2024-02-16T06:51:47;101269.16;;;-8.67;74.09
45369;BME280;51342;55.250;37.668;2024-02-16T06:54:19;101264.59;;;-8.64;74.26
45369;BME280;51342;55.250;37.668;2024-02-16T06:56:50;101265.78;;;-8.62;74.01
45369;BME280;51342;55.250;37.668;2024-02-16T06:59:22;101267.16;;;-8.58;74.12
45369;BME280;51342;55.250;37.668;2024-02-16T07:01:54;101270.16;;;-8.55;74.09
45369;BME280;51342;55.250;37.668;2024-02-16T07:04:25;101269.50;;;-8.48;73.89
45369;BME280;51342;55.250;37.668;2024-02-16T07:06:56;101267.72;;;-8.44;74.02
45369;BME280;51342;55.250;37.668;2024-02-16T07:09:29;101267.50;;;-8.40;74.01
45369;BME280;51342;55.250;37.668;2024-02-16T07:12:00;101271.41;;;-8.36;73.93
45369;BME280;51342;55.250;37.668;2024-02-16T07:14:32;101270.25;;;-8.33;73.82
45369;BME280;51342;55.250;37.668;2024-02-16T07:17:03;101267.75;;;-8.33;73.93
45369;BME280;51342;55.250;37.668;2024-02-16T07:19:38;101270.97;;;-8.28;73.85
45369;BME280;51342;55.250;37.668;2024-02-16T07:22:10;101273.94;;;-8.25;73.78
45369;BME280;51342;55.250;37.668;2024-02-16T07:24:43;101275.09;;;-8.23;73.83
45369;BME280;51342;55.250;37.668;2024-02-16T07:27:15;101263.03;;;-8.20;73.81
45369;BME280;51342;55.250;37.668;2024-02-16T07:29:46;101280.44;;;-8.10;73.57
45369;BME280;51342;55.250;37.668;2024-02-16T07:32:18;101278.59;;;-8.06;73.61
45369;BME280;51342;55.250;37.668;2024-02-16T07:34:50;101285.25;;;-8.01;73.54
45369;BME280;51342;55.250;37.668;2024-02-16T07:37:25;101273.59;;;-8.00;73.49
45369;BME280;51342;55.250;37.668;2024-02-16T07:39:57;101274.31;;;-7.95;73.29
45369;BME280;51342;55.250;37.668;2024-02-16T07:42:28;101277.53;;;-7.91;73.38
45369;BME280;51342;55.250;37.668;2024-02-16T07:45:00;101268.22;;;-7.86;73.24
45369;BME280;51342;55.250;37.668;2024-02-16T07:47:32;101264.31;;;-7.84;73.08
45369;BME280;51342;55.250;37.668;2024-02-16T07:50:04;101267.53;;;-7.80;73.12
45369;BME280;51342;55.250;37.668;2024-02-16T07:52:38;101267.56;;;-7.74;73.11
45369;BME280;51342;55.250;37.668;2024-02-16T07:55:10;101265.97;;;-7.68;73.03
45369;BME280;51342;55.250;37.668;2024-02-16T07:57:44;101268.31;;;-7.58;72.94
45369;BME280;51342;55.250;37.668;2024-02-16T08:00:17;101266.25;;;-7.55;73.00
45369;BME280;51342;55.250;37.668;2024-02-16T08:02:50;101260.78;;;-7.53;72.88
45369;BME280;51342;55.250;37.668;2024-02-16T08:05:22;101264.91;;;-7.48;72.97
45369;BME280;51342;55.250;37.668;2024-02-16T08:08:05;101266.53;;;-7.48;72.70
45369;BME280;51342;55.250;37.668;2024-02-16T08:10:39;101269.69;;;-7.49;72.65
45369;BME280;51342;55.250;37.668;2024-02-16T08:13:10;101264.00;;;-7.48;72.76
45369;BME280;51342;55.250;37.668;2024-02-16T08:15:42;101268.13;;;-7.49;72.70
45369;BME280;51342;55.250;37.668;2024-02-16T08:18:15;101266.94;;;-7.56;72.52
45369;BME280;51342;55.250;37.668;2024-02-16T08:20:49;101272.16;;;-7.66;72.46
45369;BME280;51342;55.250;37.668;2024-02-16T08:23:21;101278.31;;;-7.69;72.52
45369;BME280;51342;55.250;37.668;2024-02-16T08:25:52;101278.75;;;-7.72;72.44
45369;BME280;51342;55.250;37.668;2024-02-16T08:28:24;101281.97;;;-7.67;72.60
45369;BME280;51342;55.250;37.668;2024-02-16T08:30:56;101282.00;;;-7.62;72.52
45369;BME280;51342;55.250;37.668;2024-02-16T08:33:29;101276.28;;;-7.61;72.43
45369;BME280;51342;55.250;37.668;2024-02-16T08:36:01;101290.25;;;-7.57;72.39
45369;BME280;51342;55.250;37.668;2024-02-16T08:38:32;101278.59;;;-7.57;72.36
45369;BME280;51342;55.250;37.668;2024-02-16T08:41:04;101287.97;;;-7.50;72.36
45369;BME280;51342;55.250;37.668;2024-02-16T08:43:36;101289.34;;;-7.47;72.29
45369;BME280;51342;55.250;37.668;2024-02-16T08:46:13;101289.81;;;-7.43;72.10
45369;BME280;51342;55.250;37.668;2024-02-16T08:48:47;101281.34;;;-7.44;72.13
45369;BME280;51342;55.250;37.668;2024-02-16T08:51:24;101280.69;;;-7.49;72.15
45369;BME280;51342;55.250;37.668;2024-02-16T08:53:56;101290.75;;;-7.49;72.22
45369;BME280;51342;55.250;37.668;2024-02-16T08:56:28;101293.00;;;-7.44;72.26
45369;BME280;51342;55.250;37.668;2024-02-16T08:59:00;101296.69;;;-7.42;72.04
45369;BME280;51342;55.250;37.668;2024-02-16T09:01:39;101290.28;;;-7.46;72.13
45369;BME280;51342;55.250;37.668;2024-02-16T09:04:18;101304.88;;;-7.43;72.20
45369;BME280;51342;55.250;37.668;2024-02-16T09:06:50;101304.00;;;-7.38;72.16
45369;BME280;51342;55.250;37.668;2024-02-16T09:09:22;101304.47;;;-7.35;72.08
45369;BME280;51342;55.250;37.668;2024-02-16T09:11:57;101287.97;;;-7.44;71.98
45369;BME280;51342;55.250;37.668;2024-02-16T09:14:32;101305.81;;;-7.37;72.10
45369;BME280;51342;55.250;37.668;2024-02-16T09:17:06;101307.91;;;-7.35;71.92
45369;BME280;51342;55.250;37.668;2024-02-16T09:19:38;101304.47;;;-7.35;72.02
45369;BME280;51342;55.250;37.668;2024-02-16T09:22:10;101297.63;;;-7.31;72.09
45369;BME280;51342;55.250;37.668;2024-02-16T09:24:42;101286.66;;;-7.31;71.86
45369;BME280;51342;55.250;37.668;2024-02-16T09:27:18;101298.53;;;-7.36;71.82
45369;BME280;51342;55.250;37.668;2024-02-16T09:29:53;101287.78;;;-7.35;71.89
45369;BME280;51342;55.250;37.668;2024-02-16T09:32:24;101273.59;;;-7.40;71.88
45369;BME280;51342;55.250;37.668;2024-02-16T09:35:01;101279.34;;;-7.35;71.76
45369;BME280;51342;55.250;37.668;2024-02-16T09:37:35;101283.22;;;-7.32;71.66
45369;BME280;51342;55.250;37.668;2024-02-16T09:40:12;101276.63;;;-7.31;71.60
45369;BME280;51342;55.250;37.668;2024-02-16T09:42:48;101286.66;;;-7.31;71.56
45369;BME280;51342;55.250;37.668;2024-02-16T09:45:23;101280.03;;;-7.31;71.66
45369;BME280;51342;55.250;37.668;2024-02-16T09:48:05;101281.63;;;-7.31;71.62
45369;BME280;51342;55.250;37.668;2024-02-16T09:50:41;101269.97;;;-7.36;71.79
45369;BME280;51342;55.250;37.668;2024-02-16T09:53:17;101270.63;;;-7.37;71.58
45369;BME280;51342;55.250;37.668;2024-02-16T09:55:56;101263.31;;;-7.41;71.61
45369;BME280;51342;55.250;37.668;2024-02-16T09:58:28;101264.25;;;-7.41;71.55
45369;BME280;51342;55.250;37.668;2024-02-16T10:01:06;101251.88;;;-7.45;71.67
45369;BME280;51342;55.250;37.668;2024-02-16T10:03:43;101263.34;;;-7.36;71.58
45369;BME280;51342;55.250;37.668;2024-02-16T10:06:18;101264.25;;;-7.30;71.49
45369;BME280;51342;55.250;37.668;2024-02-16T10:08:55;101254.91;;;-7.25;71.39
45369;BME280;51342;55.250;37.668;2024-02-16T10:11:31;101251.47;;;-7.26;71.60
45369;BME280;51342;55.250;37.668;2024-02-16T10:14:04;101247.13;;;-7.15;71.52
45369;BME280;51342;55.250;37.668;2024-02-16T10:16:40;101253.53;;;-7.12;71.40
45369;BME280;51342;55.250;37.668;2024-02-16T10:19:17;101248.50;;;-7.06;71.61
45369;BME280;51342;55.250;37.668;2024-02-16T10:21:49;101246.47;;;-7.03;71.46
45369;BME280;51342;55.250;37.668;2024-02-16T10:24:23;101238.22;;;-7.02;71.41
45369;BME280;51342;55.250;37.668;2024-02-16T10:27:01;101240.50;;;-6.98;71.45
45369;BME280;51342;55.250;37.668;2024-02-16T10:29:33;101234.13;;;-6.96;71.56
45369;BME280;51342;55.250;37.668;2024-02-16T10:32:07;101235.94;;;-6.89;71.61
45369;BME280;51342;55.250;37.668;2024-02-16T10:34:40;101235.72;;;-6.85;71.55
45369;BME280;51342;55.250;37.668;2024-02-16T10:37:13;101231.34;;;-6.81;71.38
45369;BME280;51342;55.250;37.668;2024-02-16T10:39:51;101234.78;;;-6.75;71.45
45369;BME280;51342;55.250;37.668;2024-02-16T10:42:24;101233.63;;;-6.71;71.38
45369;BME280;51342;55.250;37.668;2024-02-16T10:45:05;101232.28;;;-6.75;71.57
45369;BME280;51342;55.250;37.668;2024-02-16T10:47:37;101226.31;;;-6.81;71.34
45369;BME280;51342;55.250;37.668;2024-02-16T10:50:09;101232.72;;;-6.77;71.40
45369;BME280;51342;55.250;37.668;2024-02-16T10:52:43;101233.84;;;-6.75;71.19
45369;BME280;51342;55.250;37.668;2024-02-16T10:55:16;101224.25;;;-6.72;71.29
45369;BME280;51342;55.250;37.668;2024-02-16T10:57:49;101226.28;;;-6.64;71.15
45369;BME280;51342;55.250;37.668;2024-02-16T11:00:22;101228.59;;;-6.65;71.16
45369;BME280;51342;55.250;37.668;2024-02-16T11:03:01;101230.66;;;-6.69;71.00
45369;BME280;51342;55.250;37.668;2024-02-16T11:05:39;101222.22;;;-6.75;71.11
45369;BME280;51342;55.250;37.668;2024-02-16T11:08:15;101213.06;;;-6.80;71.09
45369;BME280;51342;55.250;37.668;2024-02-16T11:11:00;101219.69;;;-6.75;70.86
45369;BME280;51342;55.250;37.668;2024-02-16T11:13:37;101222.22;;;-6.75;70.87
45369;BME280;51342;55.250;37.668;2024-02-16T11:16:11;101215.31;;;-6.76;71.01
45369;BME280;51342;55.250;37.668;2024-02-16T11:18:49;101217.41;;;-6.79;70.81
45369;BME280;51342;55.250;37.668;2024-02-16T11:21:23;101217.84;;;-6.81;70.69
45369;BME280;51342;55.250;37.668;2024-02-16T11:24:07;101216.94;;;-6.76;70.76
45369;BME280;51342;55.250;37.668;2024-02-16T11:26:45;101214.88;;;-6.73;70.77
45369;BME280;51342;55.250;37.668;2024-02-16T11:29:21;101218.53;;;-6.65;70.61
45369;BME280;51342;55.250;37.668;2024-02-16T11:31:55;101216.00;;;-6.65;70.60
45369;BME280;51342;55.250;37.668;2024-02-16T11:34:29;101212.78;;;-6.70;70.71
45369;BME280;51342;55.250;37.668;2024-02-16T11:37:02;101217.38;;;-6.68;70.71
45369;BME280;51342;55.250;37.668;2024-02-16T11:39:41;101219.91;;;-6.68;70.58
45369;BME280;51342;55.250;37.668;2024-02-16T11:42:19;101217.16;;;-6.69;70.52
45369;BME280;51342;55.250;37.668;2024-02-16T11:44:55;101220.59;;;-6.69;70.55
45369;BME280;51342;55.250;37.668;2024-02-16T11:47:30;101226.28;;;-6.64;70.76
45369;BME280;51342;55.250;37.668;2024-02-16T11:50:09;101229.03;;;-6.57;70.68
45369;BME280;51342;55.250;37.668;2024-02-16T11:52:47;101212.09;;;-6.52;70.56
45369;BME280;51342;55.250;37.668;2024-02-16T11:55:29;101216.44;;;-6.51;70.43
45369;BME280;51342;55.250;37.668;2024-02-16T11:58:09;101217.38;;;-6.56;70.21
45369;BME280;51342;55.250;37.668;2024-02-16T12:00:43;101213.47;;;-6.60;70.34
45369;BME280;51342;55.250;37.668;2024-02-16T12:03:23;101219.91;;;-6.62;70.37
45369;BME280;51342;55.250;37.668;2024-02-16T12:05:57;101218.50;;;-6.60;70.39
45369;BME280;51342;55.250;37.668;2024-02-16T12:08:35;101208.91;;;-6.62;70.31
45369;BME280;51342;55.250;37.668;2024-02-16T12:11:15;101210.75;;;-6.73;70.34
45369;BME280;51342;55.250;37.668;2024-02-16T12:13:51;101222.19;;;-6.63;70.30
45369;BME280;51342;55.250;37.668;2024-02-16T12:16:25;101222.19;;;-6.63;70.19
45369;BME280;51342;55.250;37.668;2024-02-16T12:19:11;101223.78;;;-6.70;70.04
45369;BME280;51342;55.250;37.668;2024-02-16T12:21:43;101225.63;;;-6.63;70.11
45369;BME280;51342;55.250;37.668;2024-02-16T12:24:15;101225.38;;;-6.64;69.98
45369;BME280;51342;55.250;37.668;2024-02-16T12:26:46;101229.06;;;-6.62;70.18
45369;BME280;51342;55.250;37.668;2024-02-16T12:29:20;101227.66;;;-6.60;69.99
45369;BME280;51342;55.250;37.668;2024-02-16T12:31:52;101228.56;;;-6.60;69.86
45369;BME280;51342;55.250;37.668;2024-02-16T12:34:26;101240.03;;;-6.56;69.99
45369;BME280;51342;55.250;37.668;2024-02-16T12:36:57;101225.63;;;-6.57;70.09
45369;BME280;51342;55.250;37.668;2024-02-16T12:39:34;101242.34;;;-6.63;69.81
45369;BME280;51342;55.250;37.668;2024-02-16T12:42:06;101237.94;;;-6.59;69.80
45369;BME280;51342;55.250;37.668;2024-02-16T12:44:38;101240.47;;;-6.59;69.94
45369;BME280;51342;55.250;37.668;2024-02-16T12:47:10;101238.66;;;-6.60;69.88
45369;BME280;51342;55.250;37.668;2024-02-16T12:49:46;101236.81;;;-6.61;69.81
45369;BME280;51342;55.250;37.668;2024-02-16T12:52:20;101245.75;;;-6.63;69.78
45369;BME280;51342;55.250;37.668;2024-02-16T12:54:56;101243.47;;;-6.67;69.93
45369;BME280;51342;55.250;37.668;2024-02-16T12:57:31;101246.69;;;-6.68;69.90
45369;BME280;51342;55.250;37.668;2024-02-16T13:00:10;101241.66;;;-6.74;69.82
45369;BME280;51342;55.250;37.668;2024-02-16T13:02:46;101246.44;;;-6.81;70.00
45369;BME280;51342;55.250;37.668;2024-02-16T13:05:18;101252.41;;;-6.80;69.81
45369;BME280;51342;55.250;37.668;2024-02-16T13:07:49;101247.38;;;-6.80;69.80
45369;BME280;51342;55.250;37.668;2024-02-16T13:10:24;101240.28;;;-6.83;69.91